createdAt,value
2019-05-06T00:00:03.000Z,24.9
2019-05-06T00:02:03.000Z,24.8
2019-05-06T00:04:04.000Z,24.7
2019-05-06T00:06:03.000Z,24.7
2019-05-06T00:08:03.000Z,24.8
2019-05-06T00:10:05.000Z,24.8
2019-05-06T00:12:03.000Z,24.8
2019-05-06T00:14:03.000Z,24.8
2019-05-06T00:16:03.000Z,24.8
2019-05-06T00:17:03.000Z,24.8
2019-05-06T00:18:03.000Z,24.9
2019-05-06T00:19:04.000Z,24.9
2019-05-06T00:21:03.000Z,24.9
2019-05-06T00:23:03.000Z,24.9
2019-05-06T00:25:04.000Z,24.9
2019-05-06T00:27:04.000Z,24.8
2019-05-06T00:29:03.000Z,24.8
2019-05-06T00:31:12.000Z,24.8
2019-05-06T00:33:03.000Z,24.7
2019-05-06T00:34:03.000Z,24.7
2019-05-06T00:35:04.000Z,24.6
2019-05-06T00:37:03.000Z,24.6
2019-05-06T00:38:03.000Z,24.6
2019-05-06T00:39:04.000Z,24.6
2019-05-06T00:41:03.000Z,24.6
2019-05-06T00:43:04.000Z,24.7
2019-05-06T00:45:03.000Z,24.7
2019-05-06T00:46:04.000Z,24.6
2019-05-06T00:48:04.000Z,24.6
2019-05-06T00:50:04.000Z,24.6
2019-05-06T00:52:03.000Z,24.7
2019-05-06T00:53:03.000Z,24.7
2019-05-06T00:54:03.000Z,24.6
2019-05-06T00:56:04.000Z,24.6
2019-05-06T00:58:03.000Z,24.6
2019-05-06T01:00:03.000Z,24.7
2019-05-06T01:02:04.000Z,24.7
2019-05-06T01:04:04.000Z,24.7
2019-05-06T01:06:03.000Z,24.7
2019-05-06T01:08:03.000Z,24.7
2019-05-06T01:10:18.000Z,24.7
2019-05-06T01:12:18.000Z,24.7
2019-05-06T01:14:03.000Z,24.7
2019-05-06T01:15:18.000Z,24.7
2019-05-06T01:17:03.000Z,24.7
2019-05-06T01:18:03.000Z,24.7
2019-05-06T01:19:04.000Z,24.7
2019-05-06T01:21:18.000Z,24.7
2019-05-06T01:23:18.000Z,24.7
2019-05-06T01:25:03.000Z,24.8
2019-05-06T01:27:03.000Z,24.8
2019-05-06T01:29:03.000Z,24.8
2019-05-06T01:30:03.000Z,24.8
2019-05-06T01:31:04.000Z,24.8
2019-05-06T01:32:18.000Z,24.8
2019-05-06T01:34:03.000Z,24.8
2019-05-06T01:35:04.000Z,24.8
2019-05-06T01:37:18.000Z,24.7
2019-05-06T01:39:03.000Z,24.7
2019-05-06T01:40:03.000Z,24.7
2019-05-06T01:42:03.000Z,24.7
2019-05-06T01:43:18.000Z,24.7
2019-05-06T01:45:03.000Z,24.8
2019-05-06T01:46:04.000Z,24.7
2019-05-06T01:47:18.000Z,24.7
2019-05-06T01:49:03.000Z,24.8
2019-05-06T01:50:03.000Z,24.8
2019-05-06T01:51:18.000Z,24.7
2019-05-06T01:53:03.000Z,24.7
2019-05-06T01:54:03.000Z,24.6
2019-05-06T01:56:18.000Z,24.6
2019-05-06T01:58:04.000Z,24.6
2019-05-06T02:00:04.000Z,24.7
2019-05-06T02:02:03.000Z,24.7
2019-05-06T02:04:03.000Z,24.7
2019-05-06T02:06:04.000Z,24.7
2019-05-06T02:08:03.000Z,24.7
2019-05-06T02:10:03.000Z,24.7
2019-05-06T02:11:03.000Z,24.7
2019-05-06T02:13:03.000Z,24.7
2019-05-06T02:15:03.000Z,24.7
2019-05-06T02:17:03.000Z,24.7
2019-05-06T02:19:03.000Z,24.7
2019-05-06T02:20:03.000Z,24.7
2019-05-06T02:21:04.000Z,24.6
2019-05-06T02:23:03.000Z,24.5
2019-05-06T02:24:03.000Z,24.5
2019-05-06T02:25:03.000Z,24.5
2019-05-06T02:27:04.000Z,24.4
2019-05-06T02:29:03.000Z,24.4
2019-05-06T02:31:04.000Z,24.4
2019-05-06T02:33:03.000Z,24.5
2019-05-06T02:35:04.000Z,24.5
2019-05-06T02:37:05.000Z,24.5
2019-05-06T02:39:03.000Z,24.6
2019-05-06T02:40:03.000Z,24.6
2019-05-06T02:41:03.000Z,24.6
2019-05-06T02:43:18.000Z,24.6
2019-05-06T02:45:03.000Z,24.6
2019-05-06T02:46:03.000Z,24.6
2019-05-06T02:47:18.000Z,24.5
2019-05-06T02:49:03.000Z,24.5
2019-05-06T02:51:03.000Z,24.5
2019-05-06T02:53:18.000Z,24.5
2019-05-06T02:55:03.000Z,24.7
2019-05-06T02:56:04.000Z,24.7
2019-05-06T02:58:18.000Z,24.6
2019-05-06T03:00:04.000Z,24.6
2019-05-06T03:02:18.000Z,24.6
2019-05-06T03:04:03.000Z,24.5
2019-05-06T03:05:04.000Z,24.5
2019-05-06T03:07:03.000Z,24.5
2019-05-06T03:09:18.000Z,24.5
2019-05-06T03:11:04.000Z,24.6
2019-05-06T03:13:18.000Z,24.6
2019-05-06T03:14:18.000Z,24.6
2019-05-06T03:16:03.000Z,24.7
2019-05-06T03:17:03.000Z,24.7
2019-05-06T03:18:18.000Z,24.7
2019-05-06T03:20:04.000Z,24.8
2019-05-06T03:22:18.000Z,24.8
2019-05-06T03:24:03.000Z,24.8
2019-05-06T03:25:06.000Z,24.7
2019-05-06T03:27:03.000Z,24.6
2019-05-06T03:28:04.000Z,24.5
2019-05-06T03:29:18.000Z,24.5
2019-05-06T03:31:07.000Z,24.5
2019-05-06T03:33:03.000Z,24.5
2019-05-06T03:34:16.000Z,24.4
2019-05-06T03:36:14.000Z,24.4
2019-05-06T03:38:03.000Z,24.3
2019-05-06T03:40:18.000Z,24.3
2019-05-06T03:42:03.000Z,24.4
2019-05-06T03:43:18.000Z,24.4
2019-05-06T03:44:18.000Z,24.5
2019-05-06T03:46:04.000Z,24.7
2019-05-06T03:47:05.000Z,24.7
2019-05-06T03:48:05.000Z,24.7
2019-05-06T03:50:03.000Z,24.6
2019-05-06T03:51:03.000Z,24.6
2019-05-06T03:52:18.000Z,24.5
2019-05-06T03:53:18.000Z,24.5
2019-05-06T03:54:18.000Z,24.6
2019-05-06T03:56:18.000Z,24.8
2019-05-06T03:57:18.000Z,24.8
2019-05-06T03:59:03.000Z,24.7
2019-05-06T04:00:03.000Z,24.7
2019-05-06T04:01:03.000Z,24.7
2019-05-06T04:03:18.000Z,24.7
2019-05-06T04:05:03.000Z,24.7
2019-05-06T04:07:18.000Z,24.6
2019-05-06T04:09:02.000Z,24.7
2019-05-06T04:10:03.000Z,24.7
2019-05-06T04:11:18.000Z,24.7
2019-05-06T04:13:03.000Z,24.7
2019-05-06T04:14:18.000Z,24.7
2019-05-06T04:16:03.000Z,24.7
2019-05-06T04:17:18.000Z,24.8
2019-05-06T04:19:03.000Z,24.9
2019-05-06T04:21:04.000Z,24.9
2019-05-06T04:23:03.000Z,24.7
2019-05-06T04:25:03.000Z,24.4
2019-05-06T04:26:18.000Z,24.4
2019-05-06T04:28:18.000Z,24.5
2019-05-06T04:30:03.000Z,24.6
2019-05-06T04:31:18.000Z,24.5
2019-05-06T04:32:18.000Z,24.6
2019-05-06T04:34:03.000Z,24.8
2019-05-06T04:35:03.000Z,24.8
2019-05-06T04:37:18.000Z,24.8
2019-05-06T04:38:18.000Z,24.8
2019-05-06T04:40:03.000Z,25
2019-05-06T04:41:18.000Z,25.1
2019-05-06T04:43:18.000Z,25.2
2019-05-06T04:44:18.000Z,25.3
2019-05-06T04:46:18.000Z,25.4
2019-05-06T04:48:18.000Z,25.4
2019-05-06T04:50:04.000Z,25.5
2019-05-06T04:51:18.000Z,25.4
2019-05-06T04:53:03.000Z,25.4
2019-05-06T04:54:03.000Z,25.4
2019-05-06T04:56:03.000Z,25.3
2019-05-06T04:58:03.000Z,25.3
2019-05-06T05:00:04.000Z,25.2
2019-05-06T05:02:18.000Z,25.2
2019-05-06T05:03:18.000Z,25.3
2019-05-06T05:05:03.000Z,25.5
2019-05-06T05:07:18.000Z,25.5
2019-05-06T05:08:18.000Z,25.5
2019-05-06T05:09:18.000Z,25.6
2019-05-06T05:11:18.000Z,25.8
2019-05-06T05:12:18.000Z,25.9
2019-05-06T05:14:18.000Z,26
2019-05-06T05:16:18.000Z,25.9
2019-05-06T05:17:18.000Z,26
2019-05-06T05:19:18.000Z,26
2019-05-06T05:21:18.000Z,26
2019-05-06T05:22:18.000Z,26.1
2019-05-06T05:23:18.000Z,26.1
2019-05-06T05:25:18.000Z,26.2
2019-05-06T05:27:18.000Z,26.3
2019-05-06T05:29:18.000Z,26.3
2019-05-06T05:30:18.000Z,26.4
2019-05-06T05:31:18.000Z,26.4
2019-05-06T05:33:18.000Z,26.5
2019-05-06T05:35:03.000Z,26.6
2019-05-06T05:36:18.000Z,26.5
2019-05-06T05:37:18.000Z,26.6
2019-05-06T05:38:18.000Z,26.6
2019-05-06T05:40:03.000Z,26.7
2019-05-06T05:41:18.000Z,26.6
2019-05-06T05:42:18.000Z,26.7
2019-05-06T05:44:18.000Z,26.7
2019-05-06T05:45:18.000Z,26.7
2019-05-06T05:46:18.000Z,26.8
2019-05-06T05:47:18.000Z,26.9
2019-05-06T05:48:18.000Z,26.9
2019-05-06T05:50:18.000Z,27
2019-05-06T05:51:18.000Z,26.9
2019-05-06T05:53:03.000Z,27
2019-05-06T05:54:18.000Z,26.9
2019-05-06T05:56:18.000Z,26.8
2019-05-06T05:57:18.000Z,26.8
2019-05-06T05:59:18.000Z,26.9
2019-05-06T06:01:03.000Z,26.8
2019-05-06T06:03:03.000Z,26.6
2019-05-06T06:04:18.000Z,26.5
2019-05-06T06:06:18.000Z,26.3
2019-05-06T06:08:18.000Z,26.4
2019-05-06T06:10:18.000Z,26.4
2019-05-06T06:12:03.000Z,26.4
2019-05-06T06:13:18.000Z,26.5
2019-05-06T06:15:03.000Z,26.6
2019-05-06T06:16:18.000Z,26.7
2019-05-06T06:18:18.000Z,26.9
2019-05-06T06:19:18.000Z,27
2019-05-06T06:21:03.000Z,27.1
2019-05-06T06:22:18.000Z,27.1
2019-05-06T06:23:18.000Z,27.1
2019-05-06T06:25:03.000Z,27.2
2019-05-06T06:26:03.000Z,27.2
2019-05-06T06:27:18.000Z,27.2
2019-05-06T06:29:18.000Z,27.3
2019-05-06T06:30:18.000Z,27.3
2019-05-06T06:32:18.000Z,27.4
2019-05-06T06:34:18.000Z,27.5
2019-05-06T06:36:18.000Z,27.5
2019-05-06T06:37:18.000Z,27.5
2019-05-06T06:38:18.000Z,27.6
2019-05-06T06:40:18.000Z,27.8
2019-05-06T06:42:18.000Z,27.8
2019-05-06T06:43:18.000Z,27.8
2019-05-06T06:44:18.000Z,27.9
2019-05-06T06:46:18.000Z,28
2019-05-06T06:47:18.000Z,28.1
2019-05-06T06:49:18.000Z,28.1
2019-05-06T06:51:18.000Z,28
2019-05-06T06:53:18.000Z,28
2019-05-06T06:54:18.000Z,28
2019-05-06T06:55:18.000Z,28
2019-05-06T06:57:03.000Z,28.1
2019-05-06T06:58:18.000Z,28
2019-05-06T07:00:03.000Z,27.9
2019-05-06T07:02:18.000Z,27.7
2019-05-06T07:04:03.000Z,27.7
2019-05-06T07:05:18.000Z,27.7
2019-05-06T07:07:18.000Z,27.6
2019-05-06T07:09:18.000Z,27.5
2019-05-06T07:11:18.000Z,27.7
2019-05-06T07:13:03.000Z,27.9
2019-05-06T07:14:18.000Z,27.9
2019-05-06T07:16:03.000Z,28
2019-05-06T07:17:18.000Z,28
2019-05-06T07:18:18.000Z,28.1
2019-05-06T07:19:18.000Z,28.3
2019-05-06T07:21:03.000Z,28.4
2019-05-06T07:22:06.000Z,28.4
2019-05-06T07:24:18.000Z,28.3
2019-05-06T07:25:18.000Z,28.4
2019-05-06T07:27:18.000Z,28.5
2019-05-06T07:28:18.000Z,28.6
2019-05-06T07:30:18.000Z,28.6
2019-05-06T07:32:03.000Z,28.7
2019-05-06T07:33:18.000Z,28.7
2019-05-06T07:35:03.000Z,28.9
2019-05-06T07:36:18.000Z,28.8
2019-05-06T07:38:18.000Z,28.8
2019-05-06T07:40:18.000Z,28.8
2019-05-06T07:42:18.000Z,28.9
2019-05-06T07:43:18.000Z,29
2019-05-06T07:45:05.000Z,29.1
2019-05-06T07:46:18.000Z,29.2
2019-05-06T07:48:18.000Z,29.3
2019-05-06T07:49:18.000Z,29.4
2019-05-06T07:51:18.000Z,29.6
2019-05-06T07:52:18.000Z,29.7
2019-05-06T07:54:18.000Z,29.8
2019-05-06T07:55:18.000Z,29.9
2019-05-06T07:57:18.000Z,30
2019-05-06T07:59:18.000Z,29.9
2019-05-06T08:00:18.000Z,29.9
2019-05-06T08:02:18.000Z,29.8
2019-05-06T08:04:18.000Z,29.6
2019-05-06T08:06:18.000Z,29.5
2019-05-06T08:07:18.000Z,29.5
2019-05-06T08:08:18.000Z,29.5
2019-05-06T08:10:18.000Z,29.5
2019-05-06T08:12:18.000Z,29.3
2019-05-06T08:14:18.000Z,29.2
2019-05-06T08:16:18.000Z,29.1
2019-05-06T08:17:18.000Z,29.1
2019-05-06T08:18:18.000Z,29.1
2019-05-06T08:20:18.000Z,29.2
2019-05-06T08:21:18.000Z,29.2
2019-05-06T08:22:18.000Z,29.3
2019-05-06T08:24:18.000Z,29.3
2019-05-06T08:25:18.000Z,29.4
2019-05-06T08:27:18.000Z,29.3
2019-05-06T08:29:18.000Z,29.2
2019-05-06T08:31:18.000Z,29
2019-05-06T08:33:18.000Z,28.9
2019-05-06T08:35:18.000Z,28.8
2019-05-06T08:37:18.000Z,28.8
2019-05-06T08:38:18.000Z,28.8
2019-05-06T08:40:18.000Z,28.9
2019-05-06T08:41:18.000Z,29
2019-05-06T08:43:18.000Z,29
2019-05-06T08:45:03.000Z,29.1
2019-05-06T08:46:18.000Z,29
2019-05-06T08:47:18.000Z,29
2019-05-06T08:48:18.000Z,29
2019-05-06T08:50:18.000Z,29.1
2019-05-06T08:52:18.000Z,29.1
2019-05-06T08:54:18.000Z,29.1
2019-05-06T08:56:18.000Z,29
2019-05-06T08:57:18.000Z,29
2019-05-06T08:58:18.000Z,29.1
2019-05-06T09:00:18.000Z,29.2
2019-05-06T09:02:18.000Z,29.2
2019-05-06T09:04:11.000Z,29.2
2019-05-06T09:05:18.000Z,29.1
2019-05-06T09:07:18.000Z,29
2019-05-06T09:09:18.000Z,28.9
2019-05-06T09:10:18.000Z,28.9
2019-05-06T09:12:18.000Z,28.9
2019-05-06T09:13:18.000Z,29
2019-05-06T09:14:18.000Z,29
2019-05-06T09:16:18.000Z,29.2
2019-05-06T09:18:18.000Z,29.2
2019-05-06T09:20:18.000Z,29.1
2019-05-06T09:21:18.000Z,29.1
2019-05-06T09:25:04.000Z,28.9
2019-05-06T09:26:49.000Z,28.9
2019-05-06T09:28:04.000Z,28.8
2019-05-06T09:29:04.000Z,28.9
2019-05-06T09:31:04.000Z,28.9
2019-05-06T09:32:51.000Z,28.9
2019-05-06T09:34:04.000Z,28.9
2019-05-06T09:36:04.000Z,28.9
2019-05-06T09:37:49.000Z,28.9
2019-05-06T09:39:04.000Z,28.9
2019-05-06T09:41:04.000Z,28.9
2019-05-06T09:42:51.000Z,28.9
2019-05-06T09:44:04.000Z,28.9
2019-05-06T09:45:49.000Z,28.9
2019-05-06T09:47:04.000Z,28.9
2019-05-06T09:49:04.000Z,28.9
2019-05-06T09:51:04.000Z,28.9
2019-05-06T09:53:04.000Z,29
2019-05-06T09:54:04.000Z,29
2019-05-06T09:55:04.000Z,29.2
2019-05-06T09:57:04.000Z,29.3
2019-05-06T09:59:04.000Z,29.3
2019-05-06T10:01:04.000Z,29.2
2019-05-06T10:02:52.000Z,29.1
2019-05-06T10:04:49.000Z,29
2019-05-06T10:06:04.000Z,28.9
2019-05-06T10:08:04.000Z,28.9
2019-05-06T10:09:04.000Z,28.9
2019-05-06T10:10:49.000Z,28.9
2019-05-06T10:12:04.000Z,28.7
2019-05-06T10:13:04.000Z,28.8
2019-05-06T10:15:04.000Z,28.9
2019-05-06T10:16:49.000Z,29
2019-05-06T10:17:49.000Z,29
2019-05-06T10:18:52.000Z,28.9
2019-05-06T10:20:04.000Z,28.9
2019-05-06T10:22:04.000Z,29
2019-05-06T10:24:04.000Z,29
2019-05-06T10:25:51.000Z,29.1
2019-05-06T10:27:49.000Z,29
2019-05-06T10:28:49.000Z,29
2019-05-06T10:29:51.000Z,29
2019-05-06T10:31:04.000Z,29
2019-05-06T10:33:04.000Z,29
2019-05-06T10:34:04.000Z,29.1
2019-05-06T10:36:04.000Z,29.3
2019-05-06T10:37:04.000Z,29.3
2019-05-06T10:39:04.000Z,29.4
2019-05-06T10:41:03.000Z,29.5
2019-05-06T10:42:51.000Z,29.3
2019-05-06T10:45:04.000Z,29.1
2019-05-06T10:47:04.000Z,29.1
2019-05-06T10:49:04.000Z,29.1
2019-05-06T10:50:49.000Z,29.2
2019-05-06T11:34:18.000Z,27.7
2019-05-06T11:36:18.000Z,27.9
2019-05-06T11:38:18.000Z,28.1
2019-05-06T11:40:18.000Z,28.3
2019-05-06T11:41:18.000Z,28.5
2019-05-06T11:43:18.000Z,28.7
2019-05-06T11:44:18.000Z,28.8
2019-05-06T11:46:18.000Z,29
2019-05-06T11:47:18.000Z,29.1
2019-05-06T11:48:18.000Z,29.2
2019-05-06T11:50:03.000Z,29.4
2019-05-06T11:51:18.000Z,29.3
2019-05-06T11:52:18.000Z,29.3
2019-05-06T11:54:03.000Z,29.3
2019-05-06T11:55:18.000Z,29.3
2019-05-06T11:57:03.000Z,29.3
2019-05-06T11:58:18.000Z,29.3
2019-05-06T11:59:18.000Z,29.3
2019-05-06T12:01:18.000Z,28.9
2019-05-06T12:02:18.000Z,28.8
2019-05-06T12:03:18.000Z,28.8
2019-05-06T12:05:18.000Z,28.5
2019-05-06T12:07:03.000Z,28.3
2019-05-06T12:08:07.000Z,28.1
2019-05-06T12:10:03.000Z,27.8
2019-05-06T12:11:18.000Z,27.5
2019-05-06T12:13:18.000Z,27.5
2019-05-06T12:15:03.000Z,27.4
2019-05-06T12:16:18.000Z,27.2
2019-05-06T12:17:18.000Z,27.2
2019-05-06T12:19:18.000Z,27.3
2019-05-06T12:21:11.000Z,27.3
2019-05-06T12:22:18.000Z,27.2
2019-05-06T12:24:18.000Z,27.2
2019-05-06T12:26:03.000Z,27.3
2019-05-06T12:27:18.000Z,27.4
2019-05-06T12:29:18.000Z,27.5
2019-05-06T12:31:18.000Z,27.5
2019-05-06T12:32:18.000Z,27.5
2019-05-06T12:33:18.000Z,27.6
2019-05-06T12:35:18.000Z,27.7
2019-05-06T12:36:18.000Z,27.7
2019-05-06T12:38:03.000Z,27.7
2019-05-06T12:39:06.000Z,27.5
2019-05-06T12:40:18.000Z,27.2
2019-05-06T12:41:18.000Z,27.1
2019-05-06T12:43:03.000Z,26.9
2019-05-06T12:44:18.000Z,26.8
2019-05-06T12:46:18.000Z,26.7
2019-05-06T12:48:18.000Z,26.5
2019-05-06T12:49:18.000Z,26.6
2019-05-06T12:51:18.000Z,26.4
2019-05-06T12:53:18.000Z,26.1
2019-05-06T12:55:03.000Z,25.8
2019-05-06T12:56:18.000Z,25.6
2019-05-06T12:57:18.000Z,25.4
2019-05-06T12:59:18.000Z,25.1
2019-05-06T13:00:18.000Z,25
2019-05-06T13:02:18.000Z,25.1
2019-05-06T13:03:18.000Z,25.1
2019-05-06T13:05:03.000Z,25
2019-05-06T13:06:03.000Z,25
2019-05-06T13:07:18.000Z,24.9
2019-05-06T13:09:03.000Z,25
2019-05-06T13:10:18.000Z,25.1
2019-05-06T13:12:03.000Z,25.4
2019-05-06T13:14:03.000Z,25.7
2019-05-06T13:15:03.000Z,25.8
2019-05-06T13:16:18.000Z,25.8
2019-05-06T13:18:03.000Z,25.9
2019-05-06T13:19:18.000Z,25.9
2019-05-06T13:20:18.000Z,26
2019-05-06T13:22:03.000Z,26.3
2019-05-06T13:24:04.000Z,26.4
2019-05-06T13:26:18.000Z,26.6
2019-05-06T13:27:18.000Z,26.7
2019-05-06T13:28:18.000Z,26.9
2019-05-06T13:30:18.000Z,27.3
2019-05-06T13:32:18.000Z,27.6
2019-05-06T13:34:03.000Z,27.6
2019-05-06T13:35:18.000Z,27.3
2019-05-06T13:36:18.000Z,27.1
2019-05-06T13:38:18.000Z,26.9
2019-05-06T13:40:03.000Z,26.6
2019-05-06T13:41:18.000Z,26.5
2019-05-06T13:42:18.000Z,26.4
2019-05-06T13:44:18.000Z,26.4
2019-05-06T13:45:18.000Z,26.3
2019-05-06T13:47:18.000Z,26.1
2019-05-06T13:48:18.000Z,26.1
2019-05-06T13:49:18.000Z,26.2
2019-05-06T13:51:03.000Z,26.5
2019-05-06T13:52:03.000Z,26.5
2019-05-06T13:53:08.000Z,26.6
2019-05-06T13:54:18.000Z,26.6
2019-05-06T13:55:18.000Z,26.6
2019-05-06T13:57:18.000Z,26.8
2019-05-06T13:58:18.000Z,26.9
2019-05-06T14:00:18.000Z,27
2019-05-06T14:01:18.000Z,27.1
2019-05-06T14:03:18.000Z,27.3
2019-05-06T14:04:18.000Z,27.4
2019-05-06T14:05:18.000Z,27.5
2019-05-06T14:06:18.000Z,27.6
2019-05-06T14:08:04.000Z,27.7
2019-05-06T14:11:23.000Z,27.8
2019-05-06T14:12:41.000Z,27.8
2019-05-06T14:14:42.000Z,27.7
2019-05-06T14:16:41.000Z,27.6
2019-05-06T14:18:41.000Z,27.4
2019-05-06T14:20:41.000Z,27.3
2019-05-06T14:22:42.000Z,27.2
2019-05-06T14:23:55.000Z,27.2
2019-05-06T14:25:40.000Z,27.2
2019-05-06T14:26:43.000Z,27.2
2019-05-06T14:28:40.000Z,27
2019-05-06T14:29:41.000Z,27
2019-05-06T14:30:41.000Z,26.9
2019-05-06T14:32:41.000Z,26.9
2019-05-06T14:34:42.000Z,26.9
2019-05-06T14:36:40.000Z,26.9
2019-05-06T14:37:41.000Z,26.9
2019-05-06T14:38:42.000Z,26.9
2019-05-06T14:40:41.000Z,26.9
2019-05-06T14:42:41.000Z,26.9
2019-05-06T14:44:42.000Z,26.9
2019-05-06T14:46:42.000Z,27
2019-05-06T14:48:40.000Z,27
2019-05-06T15:32:24.000Z,26
2019-05-06T15:34:24.000Z,26.3
2019-05-06T15:36:24.000Z,26.6
2019-05-06T15:38:24.000Z,26.9
2019-05-06T15:40:09.000Z,27.1
2019-05-06T15:41:24.000Z,27.1
2019-05-06T15:42:24.000Z,27.1
2019-05-06T15:44:09.000Z,27.3
2019-05-06T15:45:09.000Z,27.3
2019-05-06T15:46:24.000Z,27.4
2019-05-06T15:48:24.000Z,27.6
2019-05-06T15:50:24.000Z,27.6
2019-05-06T15:52:24.000Z,27.6
2019-05-06T15:53:24.000Z,27.6
2019-05-06T15:54:24.000Z,27.7
2019-05-06T15:56:24.000Z,27.8
2019-05-06T15:58:24.000Z,27.8
2019-05-06T16:00:24.000Z,27.8
2019-05-06T16:02:24.000Z,27.7
2019-05-06T16:04:24.000Z,27.7
2019-05-06T16:06:24.000Z,27.6
2019-05-06T16:08:24.000Z,27.5
2019-05-06T16:10:24.000Z,27.5
2019-05-06T16:12:24.000Z,27.6
2019-05-06T16:14:24.000Z,27.6
2019-05-06T16:16:24.000Z,27.7
2019-05-06T16:17:24.000Z,27.7
2019-05-06T16:19:24.000Z,27.9
2019-05-06T16:21:24.000Z,27.9
2019-05-06T16:23:24.000Z,27.8
2019-05-06T16:25:24.000Z,27.8
2019-05-06T16:26:24.000Z,27.8
2019-05-06T16:27:24.000Z,27.9
2019-05-06T16:29:09.000Z,27.9
2019-05-06T16:30:24.000Z,27.9
2019-05-06T16:32:24.000Z,27.9
2019-05-06T16:34:09.000Z,27.8
2019-05-06T17:17:33.000Z,25.7
2019-05-06T17:18:33.000Z,25.8
2019-05-06T17:19:48.000Z,25.9
2019-05-06T17:21:48.000Z,26.2
2019-05-06T17:23:48.000Z,26.4
2019-05-06T17:25:33.000Z,26.6
2019-05-06T17:26:33.000Z,26.7
2019-05-06T17:27:48.000Z,26.8
2019-05-06T17:28:48.000Z,26.9
2019-05-06T17:30:48.000Z,27.1
2019-05-06T17:32:48.000Z,27.2
2019-05-06T17:34:33.000Z,27.2
2019-05-06T17:35:48.000Z,27.3
2019-05-06T17:37:33.000Z,27.4
2019-05-06T17:38:48.000Z,27.3
2019-05-06T17:39:48.000Z,27.3
2019-05-06T17:41:33.000Z,27.4
2019-05-06T17:42:48.000Z,27.3
2019-05-06T17:44:48.000Z,27.2
2019-05-06T17:45:48.000Z,27.2
2019-05-06T17:47:48.000Z,27.3
2019-05-06T17:48:48.000Z,27.3
2019-05-06T17:50:48.000Z,27.5
2019-05-06T17:52:48.000Z,27.5
2019-05-06T17:54:33.000Z,27.5
2019-05-06T17:55:48.000Z,27.5
2019-05-06T17:57:33.000Z,27.5
2019-05-06T17:59:33.000Z,27.5
2019-05-06T18:00:48.000Z,27.3
2019-05-06T18:01:48.000Z,27.3
2019-05-06T18:03:48.000Z,27.4
2019-05-06T18:05:48.000Z,27.4
2019-05-06T18:06:48.000Z,27.4
2019-05-06T18:07:48.000Z,27.5
2019-05-06T18:08:48.000Z,27.5
2019-05-06T18:10:48.000Z,27.7
2019-05-06T18:12:33.000Z,27.7
2019-05-06T18:13:48.000Z,27.7
2019-05-06T18:15:48.000Z,27.7
2019-05-06T18:17:48.000Z,27.6
2019-05-06T18:19:33.000Z,27.6
2019-05-06T18:21:48.000Z,27.5
2019-05-06T18:22:48.000Z,27.5
2019-05-06T18:23:48.000Z,27.5
2019-05-06T18:25:48.000Z,27.3
2019-05-06T18:26:48.000Z,27.3
2019-05-06T18:28:48.000Z,27.4
2019-05-06T18:29:48.000Z,27.4
2019-05-06T18:31:48.000Z,27.4
2019-05-06T18:32:48.000Z,27.4
2019-05-06T18:34:48.000Z,27.4
2019-05-06T18:36:48.000Z,27.4
2019-05-06T18:37:48.000Z,27.5
2019-05-06T18:39:33.000Z,27.5
2019-05-06T18:40:48.000Z,27.5
2019-05-06T18:41:48.000Z,27.5
2019-05-06T18:43:48.000Z,27.5
2019-05-06T18:44:48.000Z,27.5
2019-05-06T18:45:47.000Z,27.5
2019-05-06T18:46:47.000Z,27.6
2019-05-06T18:48:32.000Z,27.7
2019-05-06T18:49:33.000Z,27.6
2019-05-06T18:50:47.000Z,27.5
2019-05-06T18:51:47.000Z,27.5
2019-05-06T18:53:47.000Z,27.4
2019-05-06T18:55:47.000Z,27.3
2019-05-06T18:57:47.000Z,27.3
2019-05-06T18:58:47.000Z,27.3
2019-05-06T19:00:47.000Z,27.2
2019-05-06T19:01:47.000Z,27.2
2019-05-06T19:03:47.000Z,27.3
2019-05-06T19:04:47.000Z,27.3
2019-05-06T19:06:32.000Z,27.4
2019-05-06T19:07:47.000Z,27.4
2019-05-06T19:09:47.000Z,27.4
2019-05-06T19:10:47.000Z,27.5
2019-05-06T19:12:32.000Z,27.5
2019-05-06T19:13:47.000Z,27.3
2019-05-06T19:14:47.000Z,27.3
2019-05-06T19:16:32.000Z,27.3
2019-05-06T19:17:47.000Z,27.1
2019-05-06T19:18:47.000Z,27.1
2019-05-06T19:20:32.000Z,27.1
2019-05-06T19:22:47.000Z,26.9
2019-05-06T19:23:47.000Z,26.9
2019-05-06T19:25:32.000Z,27
2019-05-06T19:26:47.000Z,26.9
2019-05-06T19:27:47.000Z,26.9
2019-05-06T19:29:32.000Z,27
2019-05-06T19:30:47.000Z,27
2019-05-06T19:32:32.000Z,27.1
2019-05-06T19:33:33.000Z,27
2019-05-06T19:34:34.000Z,27
2019-05-06T19:35:36.000Z,26.9
2019-05-06T19:37:47.000Z,26.8
2019-05-06T19:38:47.000Z,26.8
2019-05-06T19:39:47.000Z,26.8
2019-05-06T19:40:47.000Z,26.9
2019-05-06T19:42:32.000Z,27
2019-05-06T19:43:47.000Z,26.9
2019-05-06T19:44:47.000Z,26.9
2019-05-06T19:46:47.000Z,26.9
2019-05-06T19:48:47.000Z,26.9
2019-05-06T19:49:47.000Z,27
2019-05-06T19:51:48.000Z,27
2019-05-06T19:52:48.000Z,27
2019-05-06T19:54:48.000Z,27.1
2019-05-06T19:55:48.000Z,27.1
2019-05-06T19:57:48.000Z,27.2
2019-05-06T19:59:48.000Z,27.2
2019-05-06T20:00:48.000Z,27.2
2019-05-06T20:02:48.000Z,27.3
2019-05-06T20:03:48.000Z,27.3
2019-05-06T20:05:48.000Z,27.3
2019-05-06T20:06:48.000Z,27.4
2019-05-06T20:07:48.000Z,27.4
2019-05-06T20:09:33.000Z,27.4
2019-05-06T20:10:48.000Z,27.4
2019-05-06T20:11:48.000Z,27.4
2019-05-06T20:13:48.000Z,27.4
2019-05-06T20:14:48.000Z,27.4
2019-05-06T20:15:48.000Z,27.4
2019-05-06T20:17:48.000Z,27.4
2019-05-06T20:18:48.000Z,27.4
2019-05-06T20:20:33.000Z,27.3
2019-05-06T20:21:48.000Z,27.2
2019-05-06T20:23:48.000Z,27
2019-05-06T20:25:33.000Z,27
2019-05-06T20:26:48.000Z,26.9
2019-05-06T20:27:48.000Z,26.9
2019-05-06T20:29:33.000Z,27
2019-05-06T20:30:48.000Z,26.9
2019-05-06T20:31:48.000Z,26.9
2019-05-06T20:32:48.000Z,27
2019-05-06T20:34:33.000Z,27
2019-05-06T20:35:48.000Z,27
2019-05-06T20:36:48.000Z,27
2019-05-06T20:37:48.000Z,27
2019-05-06T20:39:48.000Z,27.1
2019-05-06T20:41:48.000Z,27.1
2019-05-06T20:43:48.000Z,27.1
2019-05-06T20:44:48.000Z,27.1
2019-05-06T20:46:48.000Z,27.1
2019-05-06T20:47:48.000Z,27.1
2019-05-06T20:49:48.000Z,27.2
2019-05-06T20:51:48.000Z,27.2
2019-05-06T20:53:48.000Z,27.2
2019-05-06T20:54:48.000Z,27.2
2019-05-06T20:56:32.000Z,27.2
2019-05-06T20:57:48.000Z,27.1
2019-05-06T20:59:48.000Z,27
2019-05-06T21:01:48.000Z,26.9
2019-05-06T21:02:48.000Z,26.9
2019-05-06T21:03:48.000Z,27
2019-05-06T21:04:48.000Z,27.1
2019-05-06T21:06:48.000Z,27.2
2019-05-06T21:08:48.000Z,27.2
2019-05-06T21:10:48.000Z,27.2
2019-05-06T21:12:48.000Z,27
2019-05-06T21:14:48.000Z,26.9
2019-05-06T21:15:48.000Z,26.9
2019-05-06T21:17:48.000Z,27
2019-05-06T21:19:48.000Z,26.9
2019-05-06T21:20:48.000Z,26.9
2019-05-06T21:22:32.000Z,27
2019-05-06T21:23:48.000Z,26.9
2019-05-06T21:25:48.000Z,26.9
2019-05-06T21:26:48.000Z,26.9
2019-05-06T21:27:48.000Z,26.9
2019-05-06T21:29:48.000Z,27
2019-05-06T21:30:48.000Z,27
2019-05-06T21:32:48.000Z,27.1
2019-05-06T21:33:48.000Z,27.1
2019-05-06T21:34:48.000Z,27.2
2019-05-06T21:36:48.000Z,27.2
2019-05-06T21:38:48.000Z,27.2
2019-05-06T21:39:48.000Z,27.2
2019-05-06T21:40:48.000Z,27.3
2019-05-06T21:42:48.000Z,27.3
2019-05-06T21:44:48.000Z,27.2
2019-05-06T21:46:48.000Z,27
2019-05-06T21:48:48.000Z,26.9
2019-05-06T21:50:48.000Z,26.8
2019-05-06T21:51:48.000Z,26.8
2019-05-06T21:53:48.000Z,26.8
2019-05-06T21:55:48.000Z,26.8
2019-05-06T21:57:48.000Z,26.8
2019-05-06T21:58:48.000Z,26.8
2019-05-06T22:00:48.000Z,26.9
2019-05-06T22:02:48.000Z,26.9
2019-05-06T22:03:48.000Z,27
2019-05-06T22:05:48.000Z,27
2019-05-06T22:06:48.000Z,27.1
2019-05-06T22:08:48.000Z,27.1
2019-05-06T22:09:48.000Z,27.1
2019-05-06T22:10:48.000Z,27.1
2019-05-06T22:12:48.000Z,27.2
2019-05-06T22:14:48.000Z,27.2
2019-05-06T22:16:48.000Z,27
2019-05-06T22:17:48.000Z,27
2019-05-06T22:18:48.000Z,27.1
2019-05-06T22:20:48.000Z,27.2
2019-05-06T22:21:48.000Z,27.2
2019-05-06T22:23:48.000Z,27.2
2019-05-06T22:25:48.000Z,27.1
2019-05-06T22:27:48.000Z,27
2019-05-06T22:29:48.000Z,26.9
2019-05-06T22:31:48.000Z,26.8
2019-05-06T22:32:48.000Z,26.9
2019-05-06T22:33:48.000Z,26.9
2019-05-06T22:35:48.000Z,27
2019-05-06T22:36:48.000Z,27
2019-05-06T22:38:48.000Z,27.1
2019-05-06T22:40:48.000Z,27
2019-05-06T22:41:48.000Z,27
2019-05-06T22:43:48.000Z,27
2019-05-06T22:45:48.000Z,26.9
2019-05-06T22:46:48.000Z,26.9
2019-05-06T22:47:48.000Z,26.9
2019-05-06T22:49:48.000Z,26.9
2019-05-06T22:51:48.000Z,26.9
2019-05-06T22:53:48.000Z,26.9
2019-05-06T22:54:48.000Z,26.9
2019-05-06T22:56:48.000Z,27
2019-05-06T22:58:33.000Z,27
2019-05-06T22:59:48.000Z,26.9
2019-05-06T23:00:48.000Z,26.8
2019-05-06T23:02:48.000Z,26.8
2019-05-06T23:04:48.000Z,26.7
2019-05-06T23:06:48.000Z,26.7
2019-05-06T23:08:48.000Z,26.5
2019-05-06T23:09:48.000Z,26.5
2019-05-06T23:10:48.000Z,26.6
2019-05-06T23:12:48.000Z,26.8
2019-05-06T23:14:33.000Z,26.8